Time;durP1;ratioP1;P1;durP2;ratioP2;P2;SDS_P1;SDS_P2;PMS_P1;PMS_P2;Temp;Humidity;BMP_temperature;BMP_pressure;BME280_temperature;BME280_humidity;BME280_pressure;Samples;Min_cycle;Max_cycle;Signal;HPM_P1;HPM_P2
2022/01/24 00:01:38;;;;;;;48.03;25.52;;;7.40;99.90;;;;;;5033249;28;20041;-73
2022/01/24 00:04:04;;;;;;;47.33;25.92;;;7.50;99.90;;;;;;5030769;28;20034;-74
2022/01/24 00:06:32;;;;;;;46.72;25.00;;;7.60;99.90;;;;;;5032167;28;20049;-74
2022/01/24 00:08:58;;;;;;;45.50;25.17;;;7.50;99.90;;;;;;5031438;28;20033;-74
2022/01/24 00:11:30;;;;;;;51.00;27.08;;;7.50;99.90;;;;;;5032389;28;20024;-74
2022/01/24 00:16:57;;;;;;;43.83;24.35;;;7.60;99.90;;;;;;5026804;28;20029;-74
2022/01/24 00:27:20;;;;;;;43.80;24.92;;;7.30;99.90;;;;;;5031119;28;20032;-74
2022/01/24 00:29:46;;;;;;;41.63;22.85;;;7.30;99.90;;;;;;5038954;28;20033;-74
2022/01/24 00:32:11;;;;;;;43.72;25.52;;;7.30;99.90;;;;;;5030409;28;20021;-74
2022/01/24 00:34:37;;;;;;;44.83;27.23;;;7.20;99.90;;;;;;5031485;28;20033;-74
2022/01/24 00:37:03;;;;;;;40.50;23.00;;;7.20;99.90;;;;;;5030898;28;20022;-74
2022/01/24 00:39:29;;;;;;;42.53;24.65;;;7.20;99.90;;;;;;5031717;28;20095;-74
2022/01/24 00:45:02;;;;;;;37.58;20.17;;;7.20;99.90;;;;;;5030929;28;20033;-74
2022/01/24 00:47:41;;;;;;;41.40;22.85;;;7.20;99.90;;;;;;5028240;28;20018;-74
2022/01/24 00:55:17;;;;;;;40.60;22.80;;;7.20;99.90;;;;;;5030446;28;20390;-73
2022/01/24 00:57:43;;;;;;;43.95;24.33;;;7.30;99.90;;;;;;5032528;28;20029;-73
2022/01/24 01:00:09;;;;;;;43.85;24.23;;;7.30;99.90;;;;;;5035141;28;20462;-74
2022/01/24 01:02:35;;;;;;;39.42;22.48;;;7.40;99.90;;;;;;5032703;28;20104;-74
2022/01/24 01:05:13;;;;;;;35.42;21.08;;;7.40;99.90;;;;;;5033364;28;20081;-73
2022/01/24 01:08:01;;;;;;;37.40;21.05;;;7.20;99.90;;;;;;5043904;28;20028;-74
2022/01/24 01:18:39;;;;;;;39.38;20.83;;;7.40;99.90;;;;;;5034673;28;20097;-73
2022/01/24 01:21:10;;;;;;;34.97;21.73;;;7.20;99.90;;;;;;5034569;28;20037;-73
2022/01/24 01:23:42;;;;;;;37.13;21.17;;;7.20;99.90;;;;;;5035517;28;20060;-73
2022/01/24 01:26:17;;;;;;;;;;;7.30;99.90;;;;;;5026849;28;20025;-71
2022/01/24 01:28:45;;;;;;;41.10;20.85;;;7.20;99.90;;;;;;5046803;28;19952;-73
2022/01/24 01:31:21;;;;;;;37.40;21.23;;;7.20;99.90;;;;;;5030443;28;20028;-73
2022/01/24 01:36:20;;;;;;;40.08;22.40;;;7.30;99.90;;;;;;5034759;28;20086;-74
2022/01/24 01:52:41;;;;;;;36.38;19.80;;;7.30;99.90;;;;;;5031173;28;20555;-74
2022/01/24 01:55:25;;;;;;;31.38;19.25;;;7.20;99.90;;;;;;5033524;28;20112;-74
2022/01/24 01:57:51;;;;;;;35.15;19.83;;;7.10;99.90;;;;;;5032424;28;20032;-74
2022/01/24 02:00:17;;;;;;;34.70;21.08;;;7.10;99.90;;;;;;5036828;28;20037;-73
2022/01/24 02:02:42;;;;;;;37.88;20.95;;;7.10;99.90;;;;;;5033394;28;20034;-74
2022/01/24 02:05:08;;;;;;;33.20;20.48;;;7.10;99.90;;;;;;5031872;28;20026;-73
2022/01/24 02:07:48;;;;;;;35.83;19.92;;;7.00;99.90;;;;;;5032764;28;20025;-74
2022/01/24 02:10:15;;;;;;;31.23;19.85;;;7.00;99.90;;;;;;5028794;28;20037;-74
2022/01/24 02:12:40;;;;;;;33.55;20.58;;;7.10;99.90;;;;;;5031177;28;20032;-74
2022/01/24 02:15:06;;;;;;;35.05;20.33;;;7.20;99.90;;;;;;5036974;28;20025;-74
2022/01/24 02:17:47;;;;;;;33.08;19.63;;;7.20;99.90;;;;;;5032134;28;20026;-75
2022/01/24 02:20:39;;;;;;;31.42;19.15;;;7.20;99.90;;;;;;5033547;28;20053;-74
2022/01/24 02:24:05;;;;;;;35.55;20.17;;;7.30;99.90;;;;;;5031309;28;20036;-74
2022/01/24 02:26:02;;;;;;;34.33;18.45;;;7.30;99.90;;;;;;5038635;28;20024;-75
2022/01/24 02:28:39;;;;;;;31.38;18.67;;;7.20;99.90;;;;;;5030219;28;20052;-74
2022/01/24 02:31:36;;;;;;;36.42;19.27;;;7.20;99.90;;;;;;5035938;28;20425;-74
2022/01/24 02:34:02;;;;;;;30.17;18.08;;;7.20;99.90;;;;;;5030803;28;20031;-73
2022/01/24 02:36:27;;;;;;;33.13;18.75;;;7.20;99.90;;;;;;5033629;28;20017;-74
2022/01/24 02:49:49;;;;;;;33.47;18.67;;;7.20;99.90;;;;;;5030442;28;20048;-73
2022/01/24 02:52:16;;;;;;;31.85;18.52;;;7.10;99.90;;;;;;5033730;28;20029;-74
2022/01/24 02:54:42;;;;;;;33.53;18.90;;;7.00;99.90;;;;;;5035008;28;20501;-74
2022/01/24 02:57:09;;;;;;;33.00;19.42;;;7.10;99.90;;;;;;5027906;28;20116;-74
2022/01/24 02:59:36;;;;;;;34.42;19.98;;;7.20;99.90;;;;;;5029413;28;20037;-74
2022/01/24 03:02:03;;;;;;;33.38;18.75;;;7.10;99.90;;;;;;5034832;28;20469;-73
2022/01/24 03:04:29;;;;;;;33.53;19.27;;;7.20;99.90;;;;;;5032223;28;20295;-74
2022/01/24 03:06:54;;;;;;;33.63;19.20;;;7.10;99.90;;;;;;5032490;28;20027;-74
2022/01/24 03:09:23;;;;;;;31.02;19.17;;;7.10;99.90;;;;;;5032359;28;20534;-74
2022/01/24 03:14:17;;;;;;;35.13;18.73;;;7.10;99.90;;;;;;5033182;28;20072;-74
2022/01/24 03:16:43;;;;;;;35.00;18.83;;;7.20;99.90;;;;;;5032550;28;20068;-73
2022/01/24 03:19:08;;;;;;;34.95;19.73;;;7.20;99.90;;;;;;5027156;28;20046;-73
2022/01/24 03:21:34;;;;;;;31.75;18.45;;;7.20;99.90;;;;;;5032417;28;20104;-73
2022/01/24 03:24:00;;;;;;;35.10;18.00;;;7.20;99.90;;;;;;5031944;28;20040;-73
2022/01/24 03:26:25;;;;;;;34.83;20.45;;;7.20;99.90;;;;;;5030108;28;20034;-73
2022/01/24 03:28:51;;;;;;;36.90;20.60;;;7.30;99.90;;;;;;5032155;28;20394;-73
2022/01/24 03:31:16;;;;;;;37.30;20.77;;;7.30;99.90;;;;;;5034758;28;20083;-73
2022/01/24 03:33:42;;;;;;;39.75;21.95;;;7.30;99.90;;;;;;5031809;28;20041;-74
2022/01/24 03:36:08;;;;;;;37.05;21.60;;;7.30;99.90;;;;;;5026443;28;20021;-74
2022/01/24 03:38:33;;;;;;;42.13;22.92;;;7.30;99.90;;;;;;5030867;28;20067;-74
2022/01/24 03:40:59;;;;;;;36.05;19.80;;;7.30;99.90;;;;;;5033232;28;20107;-74
2022/01/24 03:43:25;;;;;;;34.60;20.13;;;7.40;99.90;;;;;;5032592;28;20081;-74
2022/01/24 03:48:53;;;;;;;38.78;22.13;;;7.40;99.90;;;;;;5028034;28;20037;-75
2022/01/24 03:51:20;;;;;;;36.55;21.25;;;7.40;99.90;;;;;;5031799;28;20018;-75
2022/01/24 03:53:46;;;;;;;33.53;19.23;;;7.40;99.90;;;;;;5033312;28;20017;-74
2022/01/24 03:56:13;;;;;;;36.05;20.90;;;7.40;99.90;;;;;;5030710;28;20393;-74
2022/01/24 03:58:42;;;;;;;37.72;22.08;;;7.40;99.90;;;;;;5028601;28;20076;-75
2022/01/24 04:01:09;;;;;;;36.78;20.20;;;7.30;99.90;;;;;;5026505;28;20057;-75
2022/01/24 04:03:36;;;;;;;36.50;20.52;;;7.30;99.90;;;;;;5032114;28;20529;-75
2022/01/24 04:06:04;;;;;;;35.80;20.25;;;7.40;99.90;;;;;;5029780;28;20040;-75
2022/01/24 04:08:30;;;;;;;38.33;20.90;;;7.40;99.90;;;;;;5032474;28;20041;-75
2022/01/24 04:10:58;;;;;;;35.17;20.42;;;7.40;99.90;;;;;;5029835;28;20473;-75
2022/01/24 04:21:22;;;;;;;32.95;19.45;;;7.30;99.90;;;;;;5025081;28;20029;-74
2022/01/24 04:23:56;;;;;;;33.63;19.40;;;7.30;99.90;;;;;;5029939;28;20558;-74
2022/01/24 04:26:22;;;;;;;33.15;19.30;;;7.40;99.90;;;;;;5025278;28;20030;-74
2022/01/24 04:28:47;;;;;;;30.02;16.58;;;7.40;99.90;;;;;;5031072;28;20103;-74
2022/01/24 04:31:13;;;;;;;31.42;17.73;;;7.40;99.90;;;;;;5032030;28;20033;-74
2022/01/24 04:33:39;;;;;;;31.02;16.92;;;7.40;99.90;;;;;;5031308;28;20087;-74
2022/01/24 04:36:05;;;;;;;35.15;18.25;;;7.40;99.90;;;;;;5033984;28;20025;-74
2022/01/24 04:38:30;;;;;;;32.40;17.88;;;7.30;99.90;;;;;;5037380;28;20017;-74
2022/01/24 04:41:00;;;;;;;31.75;18.23;;;7.40;99.90;;;;;;5027137;28;20402;-74
2022/01/24 04:43:51;;;;;;;35.80;19.92;;;7.40;99.90;;;;;;5035597;28;20041;-74
2022/01/24 04:54:25;;;;;;;34.47;18.58;;;7.30;99.90;;;;;;5036977;28;20021;-74
2022/01/24 04:56:41;;;;;;;33.75;18.25;;;7.30;99.90;;;;;;5036054;28;20033;-74
2022/01/24 04:59:09;;;;;;;35.00;18.48;;;7.30;99.90;;;;;;5034978;28;20033;-74
2022/01/24 05:01:35;;;;;;;34.95;19.38;;;7.30;99.90;;;;;;5035939;28;20025;-74
2022/01/24 05:04:00;;;;;;;33.80;18.27;;;7.30;99.90;;;;;;5034324;28;20451;-74
2022/01/24 05:06:26;;;;;;;33.72;19.60;;;7.30;99.90;;;;;;5030836;28;20022;-74
2022/01/24 05:08:52;;;;;;;33.75;19.10;;;7.30;99.90;;;;;;5034334;28;20501;-74
2022/01/24 05:11:47;;;;;;;34.08;18.02;;;7.30;99.90;;;;;;5033317;28;20025;-74
2022/01/24 05:24:44;;;;;;;35.65;19.58;;;7.30;99.90;;;;;;5032690;28;20038;-74
2022/01/24 05:27:10;;;;;;;32.17;19.17;;;7.30;99.90;;;;;;5032140;28;20359;-74
2022/01/24 05:29:36;;;;;;;33.65;19.25;;;7.20;99.90;;;;;;5035563;28;20037;-73
2022/01/24 05:32:02;;;;;;;37.65;19.98;;;7.30;99.90;;;;;;5035847;28;20034;-74
2022/01/24 05:34:28;;;;;;;33.95;19.63;;;7.30;99.90;;;;;;5037125;28;20040;-74
2022/01/24 05:36:53;;;;;;;32.83;19.08;;;7.30;99.90;;;;;;5032339;28;20025;-74
2022/01/24 05:39:19;;;;;;;29.05;17.05;;;7.30;99.90;;;;;;5030429;28;20035;-74
2022/01/24 05:41:45;;;;;;;34.08;18.58;;;7.30;99.90;;;;;;5033449;28;20026;-74
2022/01/24 05:44:10;;;;;;;33.60;19.65;;;7.20;99.90;;;;;;5033405;28;20034;-74
2022/01/24 05:46:36;;;;;;;29.80;17.08;;;7.20;99.90;;;;;;5033001;28;20092;-74
2022/01/24 05:49:02;;;;;;;32.35;18.90;;;7.00;99.90;;;;;;5031833;28;20036;-74
2022/01/24 05:51:29;;;;;;;34.08;17.80;;;7.00;99.90;;;;;;5035624;28;20047;-73
2022/01/24 05:53:56;;;;;;;34.75;19.65;;;7.00;99.90;;;;;;5034590;28;20025;-74
2022/01/24 05:56:22;;;;;;;34.63;18.35;;;7.10;99.90;;;;;;5029524;28;20022;-74
2022/01/24 05:58:48;;;;;;;30.52;17.98;;;7.00;99.90;;;;;;5033594;28;20037;-74
2022/01/24 06:01:14;;;;;;;31.13;17.60;;;7.10;99.90;;;;;;5035960;28;20029;-74
2022/01/24 06:03:40;;;;;;;29.10;16.20;;;7.10;99.90;;;;;;5034073;28;20120;-73
2022/01/24 06:06:08;;;;;;;28.60;16.45;;;7.00;99.90;;;;;;5033316;28;20025;-74
2022/01/24 06:08:34;;;;;;;24.88;15.05;;;6.90;99.90;;;;;;5031534;28;20034;-74
2022/01/24 06:11:00;;;;;;;27.85;15.10;;;6.90;99.90;;;;;;5033202;28;20025;-73
2022/01/24 06:13:26;;;;;;;32.40;17.90;;;7.00;99.90;;;;;;5034452;28;20030;-73
2022/01/24 06:15:52;;;;;;;27.05;16.58;;;6.90;99.90;;;;;;5042483;28;20156;-73
2022/01/24 06:18:20;;;;;;;31.10;16.88;;;6.90;99.90;;;;;;5033218;28;20155;-74
2022/01/24 06:20:46;;;;;;;32.05;17.33;;;6.90;99.90;;;;;;5034115;28;20435;-73
2022/01/24 06:23:15;;;;;;;34.88;18.85;;;7.00;99.90;;;;;;5032155;28;20131;-73
2022/01/24 06:25:41;;;;;;;32.22;18.15;;;7.00;99.90;;;;;;5034030;28;20013;-73
2022/01/24 06:28:07;;;;;;;32.90;17.50;;;7.00;99.90;;;;;;5033596;28;20038;-73
2022/01/24 06:30:34;;;;;;;29.98;16.65;;;6.90;99.90;;;;;;5031149;28;20033;-73
2022/01/24 06:32:59;;;;;;;28.65;15.13;;;6.90;99.90;;;;;;5033368;28;20628;-73
2022/01/24 06:35:25;;;;;;;28.67;14.93;;;6.80;99.90;;;;;;5028409;28;20108;-73
2022/01/24 06:37:51;;;;;;;28.42;16.13;;;6.70;99.90;;;;;;5032234;28;20029;-72
2022/01/24 06:40:16;;;;;;;26.25;15.15;;;6.50;99.90;;;;;;5030275;28;20036;-72
2022/01/24 06:42:42;;;;;;;31.17;16.25;;;6.20;99.90;;;;;;5029226;28;20044;-73
2022/01/24 06:45:09;;;;;;;31.88;17.27;;;6.30;99.90;;;;;;5034783;28;20029;-73
2022/01/24 06:47:35;;;;;;;27.70;15.52;;;6.50;99.90;;;;;;5031177;28;20029;-73
2022/01/24 06:50:01;;;;;;;27.70;15.70;;;6.50;99.90;;;;;;5030185;28;20065;-73
2022/01/24 06:52:26;;;;;;;28.70;16.45;;;6.60;99.90;;;;;;5033231;28;20065;-73
2022/01/24 06:54:52;;;;;;;26.13;16.15;;;6.70;99.90;;;;;;5036271;28;20493;-73
2022/01/24 06:57:18;;;;;;;29.55;17.05;;;6.70;99.90;;;;;;5031910;28;20037;-73
2022/01/24 06:59:45;;;;;;;27.08;15.00;;;6.60;99.90;;;;;;5029220;28;20040;-73
2022/01/24 07:02:12;;;;;;;28.58;15.98;;;6.60;99.90;;;;;;5036746;28;20447;-74
2022/01/24 07:04:39;;;;;;;27.73;15.60;;;6.50;99.90;;;;;;5036377;28;20465;-73
2022/01/24 07:07:06;;;;;;;30.27;14.77;;;6.60;99.90;;;;;;5031723;28;20461;-73
2022/01/24 07:09:32;;;;;;;29.33;16.00;;;6.70;99.90;;;;;;5030899;28;20107;-73
2022/01/24 07:11:58;;;;;;;30.15;15.73;;;6.80;99.90;;;;;;5032149;28;20465;-73
2022/01/24 07:14:24;;;;;;;27.10;15.93;;;6.80;99.90;;;;;;5035370;28;20030;-74
2022/01/24 07:19:16;;;;;;;34.03;17.38;;;6.70;99.90;;;;;;5028829;28;20025;-73
2022/01/24 07:21:41;;;;;;;29.67;15.90;;;6.70;99.90;;;;;;5031647;28;20395;-74
2022/01/24 07:24:07;;;;;;;33.05;17.58;;;6.60;99.90;;;;;;5035103;28;20035;-74
2022/01/24 07:26:33;;;;;;;27.50;15.93;;;6.50;99.90;;;;;;5031425;28;20044;-74
2022/01/24 07:28:58;;;;;;;26.65;14.85;;;6.40;99.90;;;;;;5031757;28;20029;-73
2022/01/24 07:31:24;;;;;;;28.23;15.38;;;6.50;99.90;;;;;;5035114;28;20028;-73
2022/01/24 07:33:51;;;;;;;32.42;16.95;;;6.40;99.90;;;;;;5031374;28;20096;-73
2022/01/24 07:36:16;;;;;;;30.70;17.15;;;6.40;99.90;;;;;;5031077;28;20029;-73
2022/01/24 07:38:42;;;;;;;31.75;17.77;;;6.50;99.90;;;;;;5031515;28;20025;-73
2022/01/24 07:41:08;;;;;;;32.65;17.50;;;6.50;99.90;;;;;;5039520;28;20133;-74
2022/01/24 07:43:34;;;;;;;29.52;16.20;;;6.60;99.90;;;;;;5031382;28;20034;-73
2022/01/24 07:45:59;;;;;;;34.75;18.75;;;6.60;99.90;;;;;;5032052;28;20053;-74
2022/01/24 07:48:25;;;;;;;32.47;18.38;;;6.70;99.90;;;;;;5031095;28;20487;-73
2022/01/24 07:50:52;;;;;;;33.97;18.42;;;6.70;99.90;;;;;;5033079;28;20022;-73
2022/01/24 07:53:20;;;;;;;32.90;17.88;;;6.70;99.90;;;;;;5034603;28;20030;-74
2022/01/24 07:55:45;;;;;;;30.52;16.83;;;6.60;99.90;;;;;;5032425;28;20022;-73
2022/01/24 07:58:11;;;;;;;30.55;17.00;;;6.70;99.90;;;;;;5030671;28;20034;-73
2022/01/24 08:00:38;;;;;;;30.17;17.40;;;6.70;99.90;;;;;;5033649;28;20029;-73
2022/01/24 08:03:05;;;;;;;29.42;15.85;;;6.60;99.90;;;;;;5033172;28;20040;-74
2022/01/24 08:05:31;;;;;;;27.90;16.50;;;6.50;99.90;;;;;;5034065;28;20037;-73
2022/01/24 08:07:57;;;;;;;36.03;18.52;;;6.30;99.90;;;;;;5033750;28;20021;-73
2022/01/24 08:10:23;;;;;;;37.22;19.92;;;6.30;99.90;;;;;;5029233;28;20386;-73
2022/01/24 08:12:48;;;;;;;30.45;17.48;;;6.40;99.90;;;;;;5033788;28;20466;-72
2022/01/24 08:15:14;;;;;;;33.13;18.20;;;6.40;99.90;;;;;;5035765;28;20030;-73
2022/01/24 08:17:41;;;;;;;31.10;17.63;;;6.40;99.90;;;;;;5036678;28;20022;-72
2022/01/24 08:20:09;;;;;;;31.10;17.35;;;6.40;99.90;;;;;;5035431;28;20022;-73
2022/01/24 08:22:34;;;;;;;30.10;16.77;;;6.40;99.90;;;;;;5032664;28;20149;-72
2022/01/24 08:25:04;;;;;;;33.72;18.48;;;6.40;99.90;;;;;;5038356;28;20047;-72
2022/01/24 08:27:33;;;;;;;32.40;18.38;;;6.50;99.90;;;;;;5034337;28;20017;-73
2022/01/24 08:30:00;;;;;;;32.72;17.77;;;6.60;99.90;;;;;;5038779;28;20393;-73
2022/01/24 08:32:26;;;;;;;31.20;17.65;;;6.70;99.90;;;;;;5035394;28;20033;-73
2022/01/24 08:34:52;;;;;;;33.55;19.48;;;6.70;99.90;;;;;;5033358;28;20028;-73
2022/01/24 08:37:17;;;;;;;32.67;18.77;;;6.60;99.90;;;;;;5033345;28;20470;-73
2022/01/24 08:39:44;;;;;;;31.67;16.80;;;6.60;99.90;;;;;;5037088;28;20126;-73
2022/01/24 08:42:16;;;;;;;31.63;17.42;;;6.50;99.90;;;;;;5034451;28;20029;-73
2022/01/24 08:47:22;;;;;;;34.55;19.45;;;6.40;99.90;;;;;;5028387;28;20022;-73
2022/01/24 08:49:47;;;;;;;39.58;20.90;;;6.50;99.90;;;;;;5037750;28;20038;-73
2022/01/24 08:52:13;;;;;;;33.15;19.52;;;6.50;99.90;;;;;;5033985;28;20064;-73
2022/01/24 08:54:39;;;;;;;33.13;19.33;;;6.50;99.90;;;;;;5034289;28;20488;-73
2022/01/24 08:57:05;;;;;;;32.50;17.08;;;6.60;99.90;;;;;;5026225;28;20052;-73
2022/01/24 08:59:32;;;;;;;33.67;19.25;;;6.50;99.90;;;;;;5033452;28;20033;-73
2022/01/24 09:01:58;;;;;;;34.83;20.02;;;6.50;99.90;;;;;;5035866;28;20056;-73
2022/01/24 09:04:23;;;;;;;34.70;20.42;;;6.60;99.90;;;;;;5034830;28;20474;-73
2022/01/24 09:06:49;;;;;;;36.55;21.40;;;6.70;99.90;;;;;;5037988;28;20398;-74
2022/01/24 09:09:15;;;;;;;35.17;19.77;;;6.60;99.90;;;;;;5033809;28;20030;-73
2022/01/24 09:11:42;;;;;;;36.50;20.48;;;6.60;99.90;;;;;;5031157;28;20026;-72
2022/01/24 09:14:08;;;;;;;36.08;19.25;;;6.70;99.90;;;;;;5036079;28;20049;-72
2022/01/24 09:16:36;;;;;;;32.60;18.65;;;6.50;99.90;;;;;;5035417;28;20033;-73
2022/01/24 09:19:03;;;;;;;32.85;19.00;;;6.50;99.90;;;;;;5034957;28;20021;-73
2022/01/24 09:21:30;;;;;;;35.00;19.83;;;6.60;99.90;;;;;;5034244;28;20116;-73
2022/01/24 09:23:55;;;;;;;33.28;19.05;;;6.70;99.90;;;;;;5036125;28;20076;-73
2022/01/24 09:26:21;;;;;;;35.22;19.63;;;6.80;99.90;;;;;;5037914;28;20041;-73
2022/01/24 09:28:47;;;;;;;32.40;18.13;;;6.80;99.90;;;;;;5034525;28;20089;-73
2022/01/24 09:31:13;;;;;;;34.22;18.95;;;6.90;99.90;;;;;;5050338;28;20088;-73
2022/01/24 09:33:39;;;;;;;32.40;18.35;;;6.90;99.90;;;;;;5035843;28;20446;-73
2022/01/24 09:36:06;;;;;;;34.00;18.52;;;7.00;99.90;;;;;;5034969;28;20033;-73
2022/01/24 09:38:34;;;;;;;34.35;19.92;;;7.00;99.90;;;;;;5035382;28;20034;-73
2022/01/24 09:41:04;;;;;;;35.38;19.20;;;6.90;99.90;;;;;;5035807;28;20021;-73
2022/01/24 09:43:30;;;;;;;37.85;20.27;;;6.90;99.90;;;;;;5034789;28;20044;-73
2022/01/24 09:45:56;;;;;;;36.85;19.38;;;7.00;99.90;;;;;;5035888;28;20033;-73
2022/01/24 09:48:22;;;;;;;33.25;19.38;;;6.90;99.90;;;;;;5034214;28;20039;-72
2022/01/24 09:50:52;;;;;;;37.60;22.02;;;6.90;99.90;;;;;;5037372;28;20100;-72
2022/01/24 09:53:20;;;;;;;40.53;22.70;;;6.90;99.90;;;;;;5034658;28;20025;-73
2022/01/24 09:55:46;;;;;;;39.15;21.25;;;6.80;99.90;;;;;;5036433;28;20029;-73
2022/01/24 09:58:12;;;;;;;35.75;21.10;;;6.80;99.90;;;;;;5031460;28;20084;-73
2022/01/24 10:00:39;;;;;;;34.03;18.73;;;6.80;99.90;;;;;;5030895;28;20032;-72
2022/01/24 10:03:07;;;;;;;37.65;22.15;;;6.90;99.90;;;;;;5029781;28;20059;-73
2022/01/24 10:05:38;;;;;;;36.45;20.52;;;6.80;99.90;;;;;;5036682;28;20064;-73
2022/01/24 10:08:07;;;;;;;38.10;20.77;;;6.90;99.90;;;;;;5050656;28;20026;-72
2022/01/24 10:10:33;;;;;;;33.92;20.23;;;6.80;99.90;;;;;;5032615;28;20025;-73
2022/01/24 10:16:30;;;;;;;36.90;22.08;;;6.90;99.90;;;;;;5032898;28;20037;-72
2022/01/24 10:19:06;;;;;;;37.90;22.05;;;6.90;99.90;;;;;;5032981;28;20076;-73
2022/01/24 10:21:38;;;;;;;39.38;22.90;;;6.90;99.90;;;;;;5038111;28;20033;-73
2022/01/24 10:24:04;;;;;;;37.77;24.43;;;6.90;99.90;;;;;;5031483;28;20045;-72
2022/01/24 10:26:29;;;;;;;41.28;22.85;;;7.00;99.90;;;;;;5028090;28;20022;-72
2022/01/24 10:28:55;;;;;;;43.28;23.42;;;7.00;99.90;;;;;;5035400;28;20097;-72
2022/01/24 10:31:28;;;;;;;39.78;23.25;;;7.00;99.90;;;;;;5035415;28;20060;-73
2022/01/24 10:34:17;;;;;;;40.80;22.45;;;7.10;99.90;;;;;;5032360;28;20033;-73
2022/01/24 10:36:45;;;;;;;39.38;22.38;;;7.20;99.90;;;;;;5030352;28;20365;-73
2022/01/24 10:39:32;;;;;;;40.63;23.02;;;7.10;99.90;;;;;;5025781;28;20083;-73
2022/01/24 10:45:00;;;;;;;42.00;22.75;;;7.20;99.90;;;;;;5034413;28;20034;-73
2022/01/24 10:47:32;;;;;;;42.05;21.73;;;7.30;99.90;;;;;;5034712;28;20143;-73
2022/01/24 10:49:59;;;;;;;38.00;21.02;;;7.20;99.90;;;;;;5034404;28;20028;-73
2022/01/24 10:52:31;;;;;;;37.70;21.67;;;7.10;99.90;;;;;;5032936;28;20030;-72
2022/01/24 10:55:17;;;;;;;34.58;20.73;;;7.00;99.90;;;;;;5035528;28;20028;-73
2022/01/24 10:57:45;;;;;;;38.53;21.67;;;7.10;99.90;;;;;;5034494;28;20112;-73
2022/01/24 11:00:16;;;;;;;37.97;20.45;;;7.10;99.90;;;;;;5026830;28;20037;-73
2022/01/24 11:02:43;;;;;;;38.83;21.85;;;7.20;99.90;;;;;;5030744;28;20033;-73
2022/01/24 11:05:14;;;;;;;36.17;21.50;;;7.30;99.90;;;;;;5027149;28;20032;-72
2022/01/24 11:08:00;;;;;;;36.75;20.38;;;7.30;99.90;;;;;;5031060;28;20040;-73
2022/01/24 11:10:29;;;;;;;40.42;22.42;;;7.40;99.90;;;;;;5029148;28;20034;-72
2022/01/24 11:12:56;;;;;;;36.97;21.20;;;7.30;99.90;;;;;;5033902;28;20018;-73
2022/01/24 11:15:23;;;;;;;36.03;20.83;;;7.30;99.90;;;;;;5031493;28;20021;-72
2022/01/24 11:17:50;;;;;;;37.03;19.95;;;7.40;99.90;;;;;;5036250;28;20021;-73
2022/01/24 11:20:18;;;;;;;35.50;19.75;;;7.50;99.90;;;;;;5032162;28;20171;-73
2022/01/24 11:22:47;;;;;;;36.30;21.70;;;7.50;99.90;;;;;;5032980;28;20109;-73
2022/01/24 11:25:14;;;;;;;36.83;20.52;;;7.30;99.90;;;;;;5030720;28;20509;-73
2022/01/24 11:27:42;;;;;;;38.17;20.67;;;7.30;99.90;;;;;;5034562;28;20022;-72
2022/01/24 11:30:10;;;;;;;36.53;21.17;;;7.40;99.90;;;;;;5032617;28;20033;-72
2022/01/24 11:33:01;;;;;;;38.15;21.13;;;7.40;99.90;;;;;;5030744;28;20017;-73
2022/01/24 11:35:35;;;;;;;39.08;21.85;;;7.50;99.90;;;;;;5031762;28;20026;-72
2022/01/24 11:38:01;;;;;;;41.47;21.60;;;7.40;99.90;;;;;;5033369;28;20028;-73
2022/01/24 11:40:42;;;;;;;39.03;21.55;;;7.50;99.90;;;;;;5032603;28;20021;-73
2022/01/24 11:43:47;;;;;;;38.22;22.55;;;7.50;99.90;;;;;;5031841;28;20059;-73
2022/01/24 11:46:42;;;;;;;38.05;20.88;;;7.50;99.90;;;;;;5029118;28;20036;-73
2022/01/24 11:49:17;;;;;;;34.97;19.90;;;7.60;99.90;;;;;;5031358;28;20025;-73
2022/01/24 11:51:46;;;;;;;35.63;19.95;;;7.60;99.90;;;;;;5032309;28;20034;-73
2022/01/24 11:54:31;;;;;;;37.75;20.48;;;7.60;99.90;;;;;;5031287;28;20067;-73
2022/01/24 11:57:22;;;;;;;38.78;21.23;;;7.60;99.90;;;;;;5031819;28;20488;-72
2022/01/24 11:59:50;;;;;;;38.05;20.00;;;7.60;99.90;;;;;;5032439;28;20053;-73
2022/01/24 12:02:24;;;;;;;37.50;20.60;;;7.50;99.90;;;;;;5029509;28;20047;-73
2022/01/24 12:05:08;;;;;;;41.13;21.40;;;7.60;99.90;;;;;;5031196;28;20487;-73
2022/01/24 12:07:45;;;;;;;33.58;19.40;;;7.70;99.90;;;;;;5031845;28;20021;-73
2022/01/24 12:10:26;;;;;;;37.97;20.40;;;7.60;99.90;;;;;;5029484;28;20113;-71
2022/01/24 12:13:00;;;;;;;36.33;20.80;;;7.60;99.90;;;;;;5027846;28;20044;-74
2022/01/24 12:15:38;;;;;;;35.50;20.15;;;7.60;99.90;;;;;;5029447;28;20053;-74
2022/01/24 12:18:05;;;;;;;37.15;22.33;;;7.60;99.90;;;;;;5045394;28;20033;-72
2022/01/24 12:20:31;;;;;;;38.30;22.98;;;7.60;99.90;;;;;;5033764;28;20032;-74
2022/01/24 12:22:58;;;;;;;34.88;19.70;;;7.70;99.90;;;;;;5029689;28;20144;-74
2022/01/24 12:25:49;;;;;;;36.03;21.02;;;7.70;99.90;;;;;;5030079;28;20704;-75
2022/01/24 12:28:25;;;;;;;37.85;20.88;;;7.70;99.90;;;;;;5041420;28;20121;-74
2022/01/24 12:31:08;;;;;;;41.17;21.42;;;7.70;99.90;;;;;;5032964;28;20558;-74
2022/01/24 12:33:36;;;;;;;35.83;19.67;;;7.60;99.90;;;;;;5031665;28;20080;-74
2022/01/24 12:36:11;;;;;;;35.78;18.80;;;7.60;99.90;;;;;;5025495;28;20120;-74
2022/01/24 12:38:56;;;;;;;32.67;19.75;;;7.40;99.90;;;;;;5029590;28;20025;-74
2022/01/24 12:41:27;;;;;;;32.42;18.80;;;7.30;99.90;;;;;;5031193;28;20116;-75
2022/01/24 12:44:11;;;;;;;35.20;17.98;;;7.30;99.90;;;;;;5033067;28;20038;-75
2022/01/24 12:46:36;;;;;;;32.15;18.17;;;7.20;99.90;;;;;;5023175;28;20545;-75
2022/01/24 12:49:06;;;;;;;39.67;21.83;;;7.10;99.90;;;;;;5030113;28;20037;-75
2022/01/24 12:51:38;;;;;;;34.58;20.50;;;7.20;99.90;;;;;;5029718;28;20027;-75
2022/01/24 12:54:05;;;;;;;38.47;21.83;;;7.30;99.90;;;;;;5030314;28;20029;-75
2022/01/24 12:56:35;;;;;;;33.35;20.48;;;7.40;99.90;;;;;;5028268;28;20498;-75
2022/01/24 12:59:01;;;;;;;35.78;20.15;;;7.50;99.90;;;;;;5034311;28;20044;-75
2022/01/24 13:01:32;;;;;;;35.40;20.20;;;7.50;99.90;;;;;;5034230;28;20018;-75
2022/01/24 13:03:58;;;;;;;35.13;20.48;;;7.50;99.90;;;;;;5035293;28;20477;-75
2022/01/24 13:06:26;;;;;;;32.65;19.45;;;7.50;99.90;;;;;;5027782;28;20033;-75
2022/01/24 13:09:15;;;;;;;34.92;21.70;;;7.40;99.90;;;;;;5033304;28;20033;-75
2022/01/24 13:11:50;;;;;;;34.53;20.98;;;7.50;99.90;;;;;;5035975;28;20014;-75
2022/01/24 13:14:23;;;;;;;36.80;21.63;;;7.60;99.90;;;;;;5035020;28;20033;-75
2022/01/24 13:23:10;;;;;;;36.55;21.50;;;7.60;99.90;;;;;;5029449;28;20559;-75
2022/01/24 13:25:25;;;;;;;35.33;21.05;;;7.60;99.90;;;;;;5035371;28;20490;-76
2022/01/24 13:27:53;;;;;;;34.60;20.95;;;7.40;99.90;;;;;;5030562;28;20029;-75
2022/01/24 13:30:34;;;;;;;33.70;19.42;;;7.30;99.90;;;;;;5034076;28;20061;-75
2022/01/24 13:33:01;;;;;;;35.92;21.52;;;7.50;99.90;;;;;;5033232;28;20020;-75
2022/01/24 13:35:32;;;;;;;36.50;22.15;;;7.50;99.90;;;;;;5033433;28;20033;-75
2022/01/24 13:38:09;;;;;;;36.92;21.30;;;7.60;99.90;;;;;;5035633;28;20033;-75
2022/01/24 13:41:01;;;;;;;34.85;20.88;;;7.60;99.90;;;;;;5033652;28;20017;-75
2022/01/24 13:43:44;;;;;;;39.25;21.27;;;7.60;99.90;;;;;;5025873;28;20049;-75
2022/01/24 13:46:38;;;;;;;37.10;21.05;;;7.70;99.90;;;;;;5032109;28;20049;-75
2022/01/24 13:49:03;;;;;;;36.25;21.30;;;7.70;99.90;;;;;;5031003;28;20179;-75
2022/01/24 13:51:52;;;;;;;37.65;22.00;;;7.80;99.90;;;;;;5035677;28;20501;-75
2022/01/24 13:54:19;;;;;;;38.00;23.02;;;7.70;99.90;;;;;;5031742;28;20033;-75
2022/01/24 13:56:50;;;;;;;38.33;23.15;;;7.60;99.90;;;;;;5046390;28;20394;-75
2022/01/24 13:59:30;;;;;;;36.60;22.35;;;7.50;99.90;;;;;;5029902;28;20037;-75
2022/01/24 14:02:00;;;;;;;33.90;21.10;;;7.50;99.90;;;;;;5031656;28;20397;-75
2022/01/24 14:04:35;;;;;;;37.03;21.23;;;7.40;99.90;;;;;;5031859;28;20030;-75
2022/01/24 14:07:04;;;;;;;38.97;22.33;;;7.50;99.90;;;;;;5032935;28;20112;-76
2022/01/24 14:09:32;;;;;;;39.10;22.65;;;7.50;99.90;;;;;;5031301;28;20032;-76
2022/01/24 14:11:58;;;;;;;36.95;22.63;;;7.50;99.90;;;;;;5034924;28;20036;-76
2022/01/24 14:14:38;;;;;;;42.03;23.63;;;7.50;99.90;;;;;;5033016;28;20026;-76
2022/01/24 14:19:39;;;;;;;37.47;21.35;;;7.60;99.90;;;;;;5032023;28;20033;-76
2022/01/24 14:22:11;;;;;;;36.97;21.65;;;7.70;99.90;;;;;;5034220;28;20470;-76
2022/01/24 14:24:54;;;;;;;35.83;21.70;;;7.70;99.90;;;;;;5034136;28;20045;-76
2022/01/24 14:27:40;;;;;;;37.72;24.20;;;7.70;99.90;;;;;;5034028;28;20116;-76
2022/01/24 14:30:11;;;;;;;38.97;23.02;;;7.70;99.90;;;;;;5032594;28;20029;-75
2022/01/24 14:32:45;;;;;;;37.40;22.60;;;7.70;99.90;;;;;;5033485;28;20416;-76
2022/01/24 14:35:11;;;;;;;36.67;21.95;;;7.70;99.90;;;;;;5032003;28;20433;-75
2022/01/24 14:37:50;;;;;;;40.60;26.10;;;7.70;99.90;;;;;;5031621;28;20029;-76